Weather at Dong Hoi Airport

Public forecast

Using degrees Celsius for public forecast. Weather courtesy of forecast.io.

Closest aviation weather report (METAR) to Dong Hoi Airport

Closest report is Phu Bai International Airport, 92.5 nm (171.3 km) SE.

2024/06/16 12:30 (retrieved 20 minutes ago)

VVPB 161230Z 23007KT 190V290 9999 VCTS SCT015 FEW017CB BKN050 27/22 Q1006 NOSIG

Closest aviation forecast (TAF) to Dong Hoi Airport

Closest forecast is Phu Bai International Airport, 92.5 nm (171.3 km) SE.

2024/06/16 09:00 Ammendment (retrieved 4 hours ago)

TAF AMD VVPB 160900Z 1609/1706 05007KT 9999 FEW015 TEMPO 1609/1612 TS SCT013 FEW015CB SCT060